sensor_id;sensor_type;location;lat;lon;timestamp;pressure;altitude;pressure_sealevel;temperature;humidity
69153;BME280;56261;51.580;4.578;2024-03-08T00:02:15;101848.84;;;4.05;100.00
69153;BME280;56261;51.580;4.578;2024-03-08T00:04:40;101849.81;;;4.04;100.00
69153;BME280;56261;51.580;4.578;2024-03-08T00:07:06;101855.72;;;4.08;100.00
69153;BME280;56261;51.580;4.578;2024-03-08T00:09:32;101836.16;;;3.98;100.00
69153;BME280;56261;51.580;4.578;2024-03-08T00:11:57;101843.22;;;3.97;100.00
69153;BME280;56261;51.580;4.578;2024-03-08T00:14:23;101843.97;;;3.86;100.00
69153;BME280;56261;51.580;4.578;2024-03-08T00:16:48;101843.53;;;3.92;100.00
69153;BME280;56261;51.580;4.578;2024-03-08T00:19:14;101848.09;;;4.03;100.00
69153;BME280;56261;51.580;4.578;2024-03-08T00:21:39;101837.00;;;3.98;100.00
69153;BME280;56261;51.580;4.578;2024-03-08T00:24:05;101835.88;;;3.75;100.00
69153;BME280;56261;51.580;4.578;2024-03-08T00:26:30;101834.69;;;3.93;100.00
69153;BME280;56261;51.580;4.578;2024-03-08T00:28:56;101833.06;;;3.78;100.00
69153;BME280;56261;51.580;4.578;2024-03-08T00:31:21;101833.94;;;3.91;100.00
69153;BME280;56261;51.580;4.578;2024-03-08T00:33:50;101835.16;;;3.86;100.00
69153;BME280;56261;51.580;4.578;2024-03-08T00:36:15;101829.88;;;3.86;100.00
69153;BME280;56261;51.580;4.578;2024-03-08T00:38:40;101840.13;;;3.90;100.00
69153;BME280;56261;51.580;4.578;2024-03-08T00:41:06;101827.03;;;3.76;100.00
69153;BME280;56261;51.580;4.578;2024-03-08T00:43:31;101825.44;;;3.73;100.00
69153;BME280;56261;51.580;4.578;2024-03-08T00:45:56;101830.91;;;3.70;100.00
69153;BME280;56261;51.580;4.578;2024-03-08T00:48:23;101830.00;;;3.84;100.00
69153;BME280;56261;51.580;4.578;2024-03-08T00:50:48;101829.34;;;3.81;100.00
69153;BME280;56261;51.580;4.578;2024-03-08T00:53:14;101830.72;;;3.73;100.00
69153;BME280;56261;51.580;4.578;2024-03-08T00:55:39;101822.69;;;3.75;100.00
69153;BME280;56261;51.580;4.578;2024-03-08T00:58:05;101819.94;;;3.77;100.00
69153;BME280;56261;51.580;4.578;2024-03-08T01:00:30;101825.44;;;3.73;100.00
69153;BME280;56261;51.580;4.578;2024-03-08T01:02:56;101813.41;;;3.69;100.00
69153;BME280;56261;51.580;4.578;2024-03-08T01:05:22;101812.75;;;3.66;100.00
69153;BME280;56261;51.580;4.578;2024-03-08T01:07:49;101806.72;;;3.64;100.00
69153;BME280;56261;51.580;4.578;2024-03-08T01:10:15;101802.94;;;3.68;100.00
69153;BME280;56261;51.580;4.578;2024-03-08T01:12:40;101801.88;;;3.58;100.00
69153;BME280;56261;51.580;4.578;2024-03-08T01:15:09;101805.13;;;3.61;100.00
69153;BME280;56261;51.580;4.578;2024-03-08T01:17:35;101800.47;;;3.52;100.00
69153;BME280;56261;51.580;4.578;2024-03-08T01:20:01;101794.56;;;3.48;100.00
69153;BME280;56261;51.580;4.578;2024-03-08T01:22:27;101794.94;;;3.42;100.00
69153;BME280;56261;51.580;4.578;2024-03-08T01:24:55;101787.34;;;3.38;100.00
69153;BME280;56261;51.580;4.578;2024-03-08T01:27:20;101783.13;;;3.48;100.00
69153;BME280;56261;51.580;4.578;2024-03-08T01:29:45;101775.03;;;3.51;100.00
69153;BME280;56261;51.580;4.578;2024-03-08T01:32:11;101776.81;;;3.50;100.00
69153;BME280;56261;51.580;4.578;2024-03-08T01:34:37;101776.56;;;3.41;100.00
69153;BME280;56261;51.580;4.578;2024-03-08T01:37:02;101782.06;;;3.38;100.00
69153;BME280;56261;51.580;4.578;2024-03-08T01:39:28;101772.75;;;3.32;100.00
69153;BME280;56261;51.580;4.578;2024-03-08T01:41:53;101780.41;;;3.22;100.00
69153;BME280;56261;51.580;4.578;2024-03-08T01:44:19;101770.09;;;3.32;100.00
69153;BME280;56261;51.580;4.578;2024-03-08T01:46:45;101770.84;;;3.34;100.00
69153;BME280;56261;51.580;4.578;2024-03-08T01:49:12;101763.91;;;3.33;100.00
69153;BME280;56261;51.580;4.578;2024-03-08T01:51:38;101753.53;;;3.30;100.00
69153;BME280;56261;51.580;4.578;2024-03-08T01:54:06;101762.88;;;3.21;100.00
69153;BME280;56261;51.580;4.578;2024-03-08T01:56:32;101744.78;;;3.29;100.00
69153;BME280;56261;51.580;4.578;2024-03-08T01:58:59;101749.84;;;3.20;100.00
69153;BME280;56261;51.580;4.578;2024-03-08T02:01:25;101755.28;;;3.17;100.00
69153;BME280;56261;51.580;4.578;2024-03-08T02:03:51;101749.25;;;3.15;100.00
69153;BME280;56261;51.580;4.578;2024-03-08T02:06:16;101744.50;;;3.07;100.00
69153;BME280;56261;51.580;4.578;2024-03-08T02:08:45;101748.34;;;3.16;100.00
69153;BME280;56261;51.580;4.578;2024-03-08T02:11:11;101743.44;;;3.09;100.00
69153;BME280;56261;51.580;4.578;2024-03-08T02:13:37;101740.06;;;3.07;100.00
69153;BME280;56261;51.580;4.578;2024-03-08T02:16:03;101730.13;;;2.98;100.00
69153;BME280;56261;51.580;4.578;2024-03-08T02:18:29;101733.50;;;3.00;100.00
69153;BME280;56261;51.580;4.578;2024-03-08T02:20:57;101739.44;;;3.04;100.00
69153;BME280;56261;51.580;4.578;2024-03-08T02:23:23;101722.59;;;2.92;100.00
69153;BME280;56261;51.580;4.578;2024-03-08T02:25:52;101727.28;;;3.01;100.00
69153;BME280;56261;51.580;4.578;2024-03-08T02:28:19;101722.22;;;2.98;100.00
69153;BME280;56261;51.580;4.578;2024-03-08T02:30:45;101709.44;;;2.92;100.00
69153;BME280;56261;51.580;4.578;2024-03-08T02:33:13;101716.50;;;2.91;100.00
69153;BME280;56261;51.580;4.578;2024-03-08T02:35:42;101702.88;;;2.85;100.00
69153;BME280;56261;51.580;4.578;2024-03-08T02:38:11;101702.56;;;2.89;100.00
69153;BME280;56261;51.580;4.578;2024-03-08T02:40:37;101704.56;;;2.86;100.00
69153;BME280;56261;51.580;4.578;2024-03-08T02:43:02;101704.41;;;2.75;100.00
69153;BME280;56261;51.580;4.578;2024-03-08T02:45:30;101712.56;;;2.84;100.00
69153;BME280;56261;51.580;4.578;2024-03-08T02:47:55;101692.84;;;2.63;100.00
69153;BME280;56261;51.580;4.578;2024-03-08T02:50:21;101698.19;;;2.76;100.00
69153;BME280;56261;51.580;4.578;2024-03-08T02:52:48;101687.88;;;2.73;100.00
69153;BME280;56261;51.580;4.578;2024-03-08T02:55:13;101680.72;;;2.75;100.00
69153;BME280;56261;51.580;4.578;2024-03-08T02:57:42;101681.56;;;2.75;100.00
69153;BME280;56261;51.580;4.578;2024-03-08T03:00:12;101681.63;;;2.74;100.00
69153;BME280;56261;51.580;4.578;2024-03-08T03:02:38;101680.72;;;2.75;100.00
69153;BME280;56261;51.580;4.578;2024-03-08T03:05:04;101668.22;;;2.64;100.00
69153;BME280;56261;51.580;4.578;2024-03-08T03:07:34;101665.69;;;2.62;100.00
69153;BME280;56261;51.580;4.578;2024-03-08T03:10:00;101669.91;;;2.65;100.00
69153;BME280;56261;51.580;4.578;2024-03-08T03:12:29;101665.44;;;2.53;100.00
69153;BME280;56261;51.580;4.578;2024-03-08T03:14:54;101665.75;;;2.61;100.00
69153;BME280;56261;51.580;4.578;2024-03-08T03:17:24;101663.09;;;2.48;100.00
69153;BME280;56261;51.580;4.578;2024-03-08T03:19:50;101672.44;;;2.52;100.00
69153;BME280;56261;51.580;4.578;2024-03-08T03:22:17;101665.88;;;2.59;100.00
69153;BME280;56261;51.580;4.578;2024-03-08T03:24:43;101666.91;;;2.57;100.00
69153;BME280;56261;51.580;4.578;2024-03-08T03:27:09;101650.75;;;2.48;100.00
69153;BME280;56261;51.580;4.578;2024-03-08T03:29:40;101658.53;;;2.50;100.00
69153;BME280;56261;51.580;4.578;2024-03-08T03:32:08;101649.50;;;2.54;100.00
69153;BME280;56261;51.580;4.578;2024-03-08T03:34:34;101654.03;;;2.52;100.00
69153;BME280;56261;51.580;4.578;2024-03-08T03:37:03;101648.47;;;2.57;100.00
69153;BME280;56261;51.580;4.578;2024-03-08T03:39:29;101642.13;;;2.46;100.00
69153;BME280;56261;51.580;4.578;2024-03-08T03:41:57;101653.72;;;2.57;100.00
69153;BME280;56261;51.580;4.578;2024-03-08T03:44:23;101640.56;;;2.57;100.00
69153;BME280;56261;51.580;4.578;2024-03-08T03:46:49;101638.22;;;2.52;100.00
69153;BME280;56261;51.580;4.578;2024-03-08T03:49:16;101630.16;;;2.55;100.00
69153;BME280;56261;51.580;4.578;2024-03-08T03:51:42;101627.34;;;2.44;100.00
69153;BME280;56261;51.580;4.578;2024-03-08T03:54:10;101622.84;;;2.46;100.00
69153;BME280;56261;51.580;4.578;2024-03-08T03:56:35;101624.75;;;2.57;100.00
69153;BME280;56261;51.580;4.578;2024-03-08T03:59:01;101627.13;;;2.61;100.00
69153;BME280;56261;51.580;4.578;2024-03-08T04:01:26;101623.63;;;2.61;100.00
69153;BME280;56261;51.580;4.578;2024-03-08T04:03:51;101617.47;;;2.47;100.00
69153;BME280;56261;51.580;4.578;2024-03-08T04:06:17;101625.94;;;2.53;100.00
69153;BME280;56261;51.580;4.578;2024-03-08T04:08:42;101611.91;;;2.52;100.00
69153;BME280;56261;51.580;4.578;2024-03-08T04:11:08;101605.88;;;2.50;100.00
69153;BME280;56261;51.580;4.578;2024-03-08T04:13:36;101615.69;;;2.48;100.00
69153;BME280;56261;51.580;4.578;2024-03-08T04:16:02;101608.50;;;2.50;100.00
69153;BME280;56261;51.580;4.578;2024-03-08T04:18:27;101615.44;;;2.65;100.00
69153;BME280;56261;51.580;4.578;2024-03-08T04:20:53;101605.41;;;2.58;100.00
69153;BME280;56261;51.580;4.578;2024-03-08T04:23:19;101607.00;;;2.60;100.00
69153;BME280;56261;51.580;4.578;2024-03-08T04:25:45;101607.00;;;2.60;100.00
69153;BME280;56261;51.580;4.578;2024-03-08T04:28:10;101598.94;;;2.49;100.00
69153;BME280;56261;51.580;4.578;2024-03-08T04:30:39;101597.50;;;2.58;100.00
69153;BME280;56261;51.580;4.578;2024-03-08T04:33:07;101588.31;;;2.51;100.00
69153;BME280;56261;51.580;4.578;2024-03-08T04:35:33;101594.88;;;2.58;100.00
69153;BME280;56261;51.580;4.578;2024-03-08T04:37:59;101605.50;;;2.56;100.00
69153;BME280;56261;51.580;4.578;2024-03-08T04:40:24;101588.31;;;2.51;100.00
69153;BME280;56261;51.580;4.578;2024-03-08T04:42:50;101593.47;;;2.52;100.00
69153;BME280;56261;51.580;4.578;2024-03-08T04:45:17;101586.72;;;2.48;100.00
69153;BME280;56261;51.580;4.578;2024-03-08T04:47:43;101587.56;;;2.48;100.00
69153;BME280;56261;51.580;4.578;2024-03-08T04:50:09;101584.56;;;2.40;100.00
69153;BME280;56261;51.580;4.578;2024-03-08T04:52:34;101587.28;;;2.39;100.00
69153;BME280;56261;51.580;4.578;2024-03-08T04:55:01;101572.91;;;2.44;100.00
69153;BME280;56261;51.580;4.578;2024-03-08T04:57:29;101581.66;;;2.45;100.00
69153;BME280;56261;51.580;4.578;2024-03-08T04:59:55;101565.97;;;2.43;100.00
69153;BME280;56261;51.580;4.578;2024-03-08T05:02:20;101576.59;;;2.42;100.00
69153;BME280;56261;51.580;4.578;2024-03-08T05:04:48;101565.22;;;2.41;100.00
69153;BME280;56261;51.580;4.578;2024-03-08T05:07:13;101578.84;;;2.34;100.00
69153;BME280;56261;51.580;4.578;2024-03-08T05:09:38;101564.13;;;2.31;100.00
69153;BME280;56261;51.580;4.578;2024-03-08T05:12:05;101568.03;;;2.38;100.00
69153;BME280;56261;51.580;4.578;2024-03-08T05:14:31;101560.34;;;2.35;100.00
69153;BME280;56261;51.580;4.578;2024-03-08T05:16:56;101562.13;;;2.35;100.00
69153;BME280;56261;51.580;4.578;2024-03-08T05:19:22;101553.38;;;2.34;100.00
69153;BME280;56261;51.580;4.578;2024-03-08T05:21:48;101555.16;;;2.34;100.00
69153;BME280;56261;51.580;4.578;2024-03-08T05:24:14;101551.63;;;2.35;100.00
69153;BME280;56261;51.580;4.578;2024-03-08T05:26:41;101556.13;;;2.33;100.00
69153;BME280;56261;51.580;4.578;2024-03-08T05:29:07;101562.63;;;2.27;100.00
69153;BME280;56261;51.580;4.578;2024-03-08T05:31:49;101560.66;;;2.31;100.00
69153;BME280;56261;51.580;4.578;2024-03-08T05:34:18;101550.88;;;2.33;100.00
69153;BME280;56261;51.580;4.578;2024-03-08T05:36:45;101562.53;;;2.28;100.00
69153;BME280;56261;51.580;4.578;2024-03-08T05:39:14;101549.47;;;2.27;100.00
69153;BME280;56261;51.580;4.578;2024-03-08T05:41:40;101549.66;;;2.24;100.00
69153;BME280;56261;51.580;4.578;2024-03-08T05:44:06;101549.38;;;2.28;100.00
69153;BME280;56261;51.580;4.578;2024-03-08T05:46:31;101549.75;;;2.22;100.00
69153;BME280;56261;51.580;4.578;2024-03-08T05:48:57;101542.53;;;2.26;100.00
69153;BME280;56261;51.580;4.578;2024-03-08T05:51:24;101547.41;;;2.18;100.00
69153;BME280;56261;51.580;4.578;2024-03-08T05:53:51;101547.13;;;2.22;100.00
69153;BME280;56261;51.580;4.578;2024-03-08T05:56:18;101538.03;;;2.14;100.00
69153;BME280;56261;51.580;4.578;2024-03-08T05:58:44;101531.63;;;2.18;100.00
69153;BME280;56261;51.580;4.578;2024-03-08T06:01:11;101538.16;;;2.12;100.00
69153;BME280;56261;51.580;4.578;2024-03-08T06:03:38;101534.94;;;2.07;100.00
69153;BME280;56261;51.580;4.578;2024-03-08T06:06:13;101539.91;;;2.12;100.00
69153;BME280;56261;51.580;4.578;2024-03-08T06:08:39;101537.88;;;2.02;100.00
69153;BME280;56261;51.580;4.578;2024-03-08T06:11:05;101534.84;;;2.08;100.00
69153;BME280;56261;51.580;4.578;2024-03-08T06:13:32;101520.88;;;1.94;100.00
69153;BME280;56261;51.580;4.578;2024-03-08T06:15:59;101531.00;;;2.00;100.00
69153;BME280;56261;51.580;4.578;2024-03-08T06:18:25;101524.63;;;2.04;100.00
69153;BME280;56261;51.580;4.578;2024-03-08T06:20:51;101525.16;;;2.09;100.00
69153;BME280;56261;51.580;4.578;2024-03-08T06:23:16;101518.22;;;2.08;100.00
69153;BME280;56261;51.580;4.578;2024-03-08T06:25:45;101518.41;;;2.05;100.00
69153;BME280;56261;51.580;4.578;2024-03-08T06:28:11;101522.75;;;2.06;100.00
69153;BME280;56261;51.580;4.578;2024-03-08T06:30:36;101521.53;;;1.97;100.00
69153;BME280;56261;51.580;4.578;2024-03-08T06:33:02;101510.63;;;2.03;100.00
69153;BME280;56261;51.580;4.578;2024-03-08T06:35:27;101510.06;;;1.98;100.00
69153;BME280;56261;51.580;4.578;2024-03-08T06:37:57;101508.94;;;2.02;100.00
69153;BME280;56261;51.580;4.578;2024-03-08T06:40:22;101512.31;;;2.04;100.00
69153;BME280;56261;51.580;4.578;2024-03-08T06:42:48;101508.44;;;2.10;100.00
69153;BME280;56261;51.580;4.578;2024-03-08T06:45:13;101491.25;;;2.04;100.00
69153;BME280;56261;51.580;4.578;2024-03-08T06:47:44;101500.66;;;2.08;100.00
69153;BME280;56261;51.580;4.578;2024-03-08T06:50:11;101502.91;;;2.15;100.00
69153;BME280;56261;51.580;4.578;2024-03-08T06:52:36;101499.31;;;2.16;100.00
69153;BME280;56261;51.580;4.578;2024-03-08T06:55:02;101503.88;;;2.26;100.00
69153;BME280;56261;51.580;4.578;2024-03-08T06:57:30;101495.31;;;2.23;100.00
69153;BME280;56261;51.580;4.578;2024-03-08T06:59:56;101496.81;;;2.27;100.00
69153;BME280;56261;51.580;4.578;2024-03-08T07:02:22;101499.06;;;2.33;100.00
69153;BME280;56261;51.580;4.578;2024-03-08T07:04:50;101490.78;;;2.39;100.00
69153;BME280;56261;51.580;4.578;2024-03-08T07:07:16;101500.03;;;2.45;100.00
69153;BME280;56261;51.580;4.578;2024-03-08T07:09:44;101486.69;;;2.48;100.00
69153;BME280;56261;51.580;4.578;2024-03-08T07:12:10;101492.84;;;2.61;100.00
69153;BME280;56261;51.580;4.578;2024-03-08T07:14:38;101486.91;;;2.58;100.00
69153;BME280;56261;51.580;4.578;2024-03-08T07:17:07;101499.47;;;2.67;100.00
69153;BME280;56261;51.580;4.578;2024-03-08T07:19:34;101472.19;;;2.68;100.00
69153;BME280;56261;51.580;4.578;2024-03-08T07:21:59;101486.03;;;2.97;100.00
69153;BME280;56261;51.580;4.578;2024-03-08T07:24:25;101476.81;;;3.41;100.00
69153;BME280;56261;51.580;4.578;2024-03-08T07:27:04;101472.38;;;3.54;100.00
69153;BME280;56261;51.580;4.578;2024-03-08T07:29:33;101468.56;;;3.71;100.00
69153;BME280;56261;51.580;4.578;2024-03-08T07:32:01;101477.78;;;3.53;100.00
69153;BME280;56261;51.580;4.578;2024-03-08T07:34:45;101471.50;;;3.80;100.00
69153;BME280;56261;51.580;4.578;2024-03-08T07:37:11;101473.66;;;3.86;100.00
69153;BME280;56261;51.580;4.578;2024-03-08T07:39:39;101470.38;;;3.95;100.00
69153;BME280;56261;51.580;4.578;2024-03-08T07:42:05;101465.19;;;3.69;100.00
69153;BME280;56261;51.580;4.578;2024-03-08T07:44:30;101456.22;;;3.96;100.00
69153;BME280;56261;51.580;4.578;2024-03-08T07:46:58;101457.75;;;4.11;100.00
69153;BME280;56261;51.580;4.578;2024-03-08T07:49:24;101454.78;;;4.16;100.00
69153;BME280;56261;51.580;4.578;2024-03-08T07:51:49;101465.63;;;4.24;100.00
69153;BME280;56261;51.580;4.578;2024-03-08T07:54:15;101458.16;;;4.18;100.00
69153;BME280;56261;51.580;4.578;2024-03-08T07:56:40;101458.81;;;4.09;100.00
69153;BME280;56261;51.580;4.578;2024-03-08T07:59:07;101453.84;;;4.28;100.00
69153;BME280;56261;51.580;4.578;2024-03-08T08:01:33;101446.59;;;4.43;100.00
69153;BME280;56261;51.580;4.578;2024-03-08T08:04:02;101438.97;;;4.27;100.00
69153;BME280;56261;51.580;4.578;2024-03-08T08:06:27;101439.81;;;4.63;100.00
69153;BME280;56261;51.580;4.578;2024-03-08T08:08:57;101442.00;;;4.69;100.00
69153;BME280;56261;51.580;4.578;2024-03-08T08:11:22;101434.16;;;4.56;100.00
69153;BME280;56261;51.580;4.578;2024-03-08T08:13:48;101428.16;;;4.66;100.00
69153;BME280;56261;51.580;4.578;2024-03-08T08:16:13;101423.75;;;4.89;100.00
69153;BME280;56261;51.580;4.578;2024-03-08T08:18:39;101407.66;;;4.69;100.00
69153;BME280;56261;51.580;4.578;2024-03-08T08:21:06;101408.03;;;4.76;100.00
69153;BME280;56261;51.580;4.578;2024-03-08T08:23:34;101430.31;;;4.61;100.00
69153;BME280;56261;51.580;4.578;2024-03-08T08:26:00;101419.06;;;4.81;100.00
69153;BME280;56261;51.580;4.578;2024-03-08T08:28:28;101417.19;;;5.17;100.00
69153;BME280;56261;51.580;4.578;2024-03-08T08:30:54;101419.69;;;5.30;100.00
69153;BME280;56261;51.580;4.578;2024-03-08T08:33:20;101407.53;;;5.50;100.00
69153;BME280;56261;51.580;4.578;2024-03-08T08:35:45;101422.72;;;5.36;100.00
69153;BME280;56261;51.580;4.578;2024-03-08T08:38:13;101414.97;;;5.45;100.00
69153;BME280;56261;51.580;4.578;2024-03-08T08:40:38;101411.28;;;5.47;100.00
69153;BME280;56261;51.580;4.578;2024-03-08T08:43:04;101414.03;;;5.57;100.00
69153;BME280;56261;51.580;4.578;2024-03-08T08:45:30;101401.63;;;5.46;100.00
69153;BME280;56261;51.580;4.578;2024-03-08T08:47:56;101399.44;;;5.62;100.00
69153;BME280;56261;51.580;4.578;2024-03-08T08:50:22;101396.41;;;5.78;100.00
69153;BME280;56261;51.580;4.578;2024-03-08T08:52:50;101398.06;;;5.36;100.00
69153;BME280;56261;51.580;4.578;2024-03-08T08:55:16;101390.78;;;5.72;100.00
69153;BME280;56261;51.580;4.578;2024-03-08T08:57:46;101385.34;;;5.73;100.00
69153;BME280;56261;51.580;4.578;2024-03-08T09:00:12;101378.94;;;5.98;100.00
69153;BME280;56261;51.580;4.578;2024-03-08T09:02:43;101385.84;;;6.11;100.00
69153;BME280;56261;51.580;4.578;2024-03-08T09:05:08;101382.69;;;6.17;100.00
69153;BME280;56261;51.580;4.578;2024-03-08T09:07:34;101369.91;;;6.01;100.00
69153;BME280;56261;51.580;4.578;2024-03-08T09:10:02;101354.88;;;6.43;100.00
69153;BME280;56261;51.580;4.578;2024-03-08T09:12:28;101359.38;;;6.32;100.00
69153;BME280;56261;51.580;4.578;2024-03-08T09:14:53;101356.72;;;6.32;100.00
69153;BME280;56261;51.580;4.578;2024-03-08T09:17:18;101347.16;;;6.61;100.00
69153;BME280;56261;51.580;4.578;2024-03-08T09:19:49;101342.44;;;6.44;100.00
69153;BME280;56261;51.580;4.578;2024-03-08T09:22:15;101342.09;;;6.58;100.00
69153;BME280;56261;51.580;4.578;2024-03-08T09:24:41;101340.19;;;7.01;100.00
69153;BME280;56261;51.580;4.578;2024-03-08T09:27:08;101327.22;;;7.58;100.00
69153;BME280;56261;51.580;4.578;2024-03-08T09:29:35;101326.25;;;6.99;100.00
69153;BME280;56261;51.580;4.578;2024-03-08T09:32:00;101322.19;;;6.95;100.00
69153;BME280;56261;51.580;4.578;2024-03-08T09:34:26;101320.84;;;7.10;100.00
69153;BME280;56261;51.580;4.578;2024-03-08T09:36:52;101316.06;;;7.04;100.00
69153;BME280;56261;51.580;4.578;2024-03-08T09:39:17;101302.84;;;7.14;100.00
69153;BME280;56261;51.580;4.578;2024-03-08T09:41:46;101289.19;;;7.28;100.00
69153;BME280;56261;51.580;4.578;2024-03-08T09:44:17;101292.28;;;7.62;100.00
69153;BME280;56261;51.580;4.578;2024-03-08T09:46:43;101277.88;;;7.26;100.00
69153;BME280;56261;51.580;4.578;2024-03-08T09:49:10;101276.22;;;7.54;100.00
69153;BME280;56261;51.580;4.578;2024-03-08T09:51:38;101268.13;;;7.75;100.00
69153;BME280;56261;51.580;4.578;2024-03-08T09:54:06;101260.44;;;7.62;100.00
69153;BME280;56261;51.580;4.578;2024-03-08T09:56:39;101260.38;;;8.01;100.00
69153;BME280;56261;51.580;4.578;2024-03-08T09:59:06;101253.00;;;7.95;100.00
69153;BME280;56261;51.580;4.578;2024-03-08T10:01:50;101257.91;;;7.80;100.00
69153;BME280;56261;51.580;4.578;2024-03-08T10:04:17;101239.25;;;8.09;100.00
69153;BME280;56261;51.580;4.578;2024-03-08T10:06:43;101227.69;;;8.48;100.00
69153;BME280;56261;51.580;4.578;2024-03-08T10:09:09;101233.00;;;8.10;100.00
69153;BME280;56261;51.580;4.578;2024-03-08T10:11:35;101223.53;;;7.69;100.00
69153;BME280;56261;51.580;4.578;2024-03-08T10:14:01;101225.41;;;8.06;100.00
69153;BME280;56261;51.580;4.578;2024-03-08T10:16:27;101217.19;;;8.09;100.00
69153;BME280;56261;51.580;4.578;2024-03-08T10:18:55;101217.44;;;8.06;100.00
69153;BME280;56261;51.580;4.578;2024-03-08T10:21:21;101211.47;;;7.94;100.00
69153;BME280;56261;51.580;4.578;2024-03-08T10:23:46;101216.22;;;8.00;100.00
69153;BME280;56261;51.580;4.578;2024-03-08T10:26:17;101199.59;;;7.98;100.00
69153;BME280;56261;51.580;4.578;2024-03-08T10:28:47;101200.75;;;7.76;100.00
69153;BME280;56261;51.580;4.578;2024-03-08T10:31:14;101200.97;;;8.02;100.00
69153;BME280;56261;51.580;4.578;2024-03-08T10:33:40;101192.88;;;8.41;100.00
69153;BME280;56261;51.580;4.578;2024-03-08T10:36:09;101185.13;;;8.58;100.00
69153;BME280;56261;51.580;4.578;2024-03-08T10:38:39;101181.59;;;8.29;100.00
69153;BME280;56261;51.580;4.578;2024-03-08T10:41:06;101178.91;;;8.67;100.00
69153;BME280;56261;51.580;4.578;2024-03-08T10:43:52;101175.38;;;8.39;100.00
69153;BME280;56261;51.580;4.578;2024-03-08T10:49:16;101177.22;;;8.66;100.00
69153;BME280;56261;51.580;4.578;2024-03-08T10:51:46;101170.63;;;8.70;100.00
69153;BME280;56261;51.580;4.578;2024-03-08T10:54:14;101167.41;;;8.48;100.00
69153;BME280;56261;51.580;4.578;2024-03-08T10:56:40;101153.06;;;8.59;100.00
69153;BME280;56261;51.580;4.578;2024-03-08T10:59:08;101151.09;;;8.61;100.00
69153;BME280;56261;51.580;4.578;2024-03-08T11:01:33;101137.19;;;8.49;100.00
69153;BME280;56261;51.580;4.578;2024-03-08T11:03:59;101149.09;;;8.45;100.00
69153;BME280;56261;51.580;4.578;2024-03-08T11:09:08;101146.81;;;8.96;100.00
69153;BME280;56261;51.580;4.578;2024-03-08T11:11:38;101135.84;;;8.81;100.00
69153;BME280;56261;51.580;4.578;2024-03-08T11:14:05;101125.06;;;8.83;100.00
69153;BME280;56261;51.580;4.578;2024-03-08T11:16:39;101136.22;;;8.68;100.00
69153;BME280;56261;51.580;4.578;2024-03-08T11:21:36;101130.47;;;8.91;100.00
69153;BME280;56261;51.580;4.578;2024-03-08T11:24:10;101108.41;;;8.99;100.00
69153;BME280;56261;51.580;4.578;2024-03-08T11:26:37;101122.09;;;9.04;100.00
69153;BME280;56261;51.580;4.578;2024-03-08T11:32:08;101109.03;;;9.54;100.00
69153;BME280;56261;51.580;4.578;2024-03-08T11:34:46;101104.31;;;9.48;100.00
69153;BME280;56261;51.580;4.578;2024-03-08T11:37:22;101087.44;;;9.66;100.00
69153;BME280;56261;51.580;4.578;2024-03-08T11:39:52;101098.16;;;9.74;100.00
69153;BME280;56261;51.580;4.578;2024-03-08T11:42:19;101100.28;;;9.96;100.00
69153;BME280;56261;51.580;4.578;2024-03-08T11:44:48;101094.88;;;9.54;100.00
69153;BME280;56261;51.580;4.578;2024-03-08T11:47:14;101089.75;;;9.61;100.00
69153;BME280;56261;51.580;4.578;2024-03-08T11:49:40;101079.94;;;9.61;100.00
69153;BME280;56261;51.580;4.578;2024-03-08T11:52:16;101082.69;;;9.25;100.00
69153;BME280;56261;51.580;4.578;2024-03-08T11:54:47;101077.91;;;9.55;100.00
69153;BME280;56261;51.580;4.578;2024-03-08T11:57:18;101070.41;;;9.85;100.00
69153;BME280;56261;51.580;4.578;2024-03-08T11:59:50;101065.69;;;10.05;100.00
69153;BME280;56261;51.580;4.578;2024-03-08T12:02:15;101076.97;;;9.98;100.00
69153;BME280;56261;51.580;4.578;2024-03-08T12:04:41;101068.97;;;9.98;100.00
69153;BME280;56261;51.580;4.578;2024-03-08T12:07:09;101064.34;;;10.09;100.00
69153;BME280;56261;51.580;4.578;2024-03-08T12:09:37;101052.72;;;10.18;100.00
69153;BME280;56261;51.580;4.578;2024-03-08T12:12:03;101059.78;;;10.35;100.00
69153;BME280;56261;51.580;4.578;2024-03-08T12:14:33;101042.72;;;10.20;100.00
69153;BME280;56261;51.580;4.578;2024-03-08T12:16:59;101042.41;;;10.23;100.00
69153;BME280;56261;51.580;4.578;2024-03-08T12:19:29;101045.13;;;10.39;100.00
69153;BME280;56261;51.580;4.578;2024-03-08T12:21:55;101032.94;;;10.29;100.00
69153;BME280;56261;51.580;4.578;2024-03-08T12:24:21;101043.31;;;10.32;100.00
69153;BME280;56261;51.580;4.578;2024-03-08T12:26:47;101034.19;;;10.08;100.00
69153;BME280;56261;51.580;4.578;2024-03-08T12:31:53;101024.63;;;10.40;100.00
69153;BME280;56261;51.580;4.578;2024-03-08T12:34:19;101014.56;;;10.17;100.00
69153;BME280;56261;51.580;4.578;2024-03-08T12:36:46;100993.31;;;10.34;100.00
69153;BME280;56261;51.580;4.578;2024-03-08T12:39:17;101010.66;;;10.46;100.00
69153;BME280;56261;51.580;4.578;2024-03-08T12:41:48;101005.97;;;10.40;100.00
69153;BME280;56261;51.580;4.578;2024-03-08T12:44:14;100988.66;;;10.69;100.00
69153;BME280;56261;51.580;4.578;2024-03-08T12:46:40;100998.66;;;10.67;100.00
69153;BME280;56261;51.580;4.578;2024-03-08T12:49:09;100996.84;;;10.67;100.00
69153;BME280;56261;51.580;4.578;2024-03-08T12:51:35;100995.84;;;10.68;100.00
69153;BME280;56261;51.580;4.578;2024-03-08T12:54:01;100992.00;;;10.71;100.00
69153;BME280;56261;51.580;4.578;2024-03-08T12:56:31;100992.66;;;10.73;100.00
69153;BME280;56261;51.580;4.578;2024-03-08T12:58:58;100980.00;;;10.75;100.00
69153;BME280;56261;51.580;4.578;2024-03-08T13:01:24;100982.00;;;10.81;100.00
69153;BME280;56261;51.580;4.578;2024-03-08T13:03:49;100978.16;;;10.75;100.00